Time;durP1;ratioP1;P1;durP2;ratioP2;P2;SDS_P1;SDS_P2;PMS_P1;PMS_P2;Temp;Humidity;BMP_temperature;BMP_pressure;BME280_temperature;BME280_humidity;BME280_pressure;Samples;Min_cycle;Max_cycle;Signal;HPM_P1;HPM_P2
2021/10/11 00:01:31;;;;;;;55.50;21.60;;;;;;;1.71;100.00;94623.72;5072734;28;20202;-76
2021/10/11 00:03:58;;;;;;;65.33;22.43;;;;;;;1.78;100.00;94627.44;5072601;28;20256;-77
2021/10/11 00:06:24;;;;;;;57.03;22.03;;;;;;;1.72;100.00;94622.78;5064138;28;20211;-77
2021/10/11 00:08:52;;;;;;;60.93;22.10;;;;;;;1.65;100.00;94621.66;5052726;28;20590;-77
2021/10/11 00:11:18;;;;;;;56.40;21.07;;;;;;;1.64;100.00;94620.03;5052614;28;20204;-77
2021/10/11 00:13:45;;;;;;;55.73;22.07;;;;;;;1.59;100.00;94617.00;5052581;28;20210;-77
2021/10/11 00:16:12;;;;;;;48.90;21.00;;;;;;;1.46;100.00;94620.56;5061185;28;20634;-77
2021/10/11 00:18:39;;;;;;;60.10;22.23;;;;;;;1.49;100.00;94622.06;5072407;28;20205;-77
2021/10/11 00:21:05;;;;;;;70.37;23.47;;;;;;;1.61;100.00;94609.97;5075867;28;20275;-77
2021/10/11 00:23:32;;;;;;;67.27;22.43;;;;;;;1.44;100.00;94612.16;5076295;28;20256;-77
2021/10/11 00:25:59;;;;;;;67.50;22.43;;;;;;;1.40;100.00;94613.34;5075506;28;20253;-76
2021/10/11 00:28:26;;;;;;;67.90;22.43;;;;;;;1.41;100.00;94614.97;5076086;28;20202;-77
2021/10/11 00:30:52;;;;;;;75.47;23.03;;;;;;;1.48;100.00;94616.13;5075926;28;20233;-77
2021/10/11 00:33:19;;;;;;;80.67;26.40;;;;;;;1.57;100.00;94600.88;5075771;28;20268;-78
2021/10/11 00:35:45;;;;;;;75.20;25.63;;;;;;;1.57;100.00;94606.03;5076052;28;20230;-76
2021/10/11 00:38:12;;;;;;;86.37;26.97;;;;;;;1.64;100.00;94604.59;5075769;28;20195;-76
2021/10/11 00:40:38;;;;;;;82.80;25.63;;;;;;;1.65;100.00;94603.66;5075725;28;20653;-77
2021/10/11 00:43:06;;;;;;;71.13;25.37;;;;;;;1.61;100.00;94604.81;5075689;28;20710;-77
2021/10/11 00:45:32;;;;;;;74.67;24.27;;;;;;;1.51;100.00;94612.47;5075593;28;20607;-77
2021/10/11 00:47:59;;;;;;;65.60;23.30;;;;;;;1.40;100.00;94605.63;5075441;28;20202;-77
2021/10/11 00:50:25;;;;;;;64.80;22.07;;;;;;;1.34;100.00;94615.59;5075800;28;20249;-76
2021/10/11 00:52:52;;;;;;;65.33;21.97;;;;;;;1.21;100.00;94618.34;5075619;28;20203;-77
2021/10/11 00:55:18;;;;;;;62.77;21.07;;;;;;;1.13;100.00;94625.84;5075231;28;20242;-77
2021/10/11 00:57:45;;;;;;;55.63;20.63;;;;;;;1.14;100.00;94624.91;5075466;28;20203;-77
2021/10/11 01:00:14;;;;;;;68.13;22.37;;;;;;;1.08;100.00;94624.47;5075277;28;20210;-77
2021/10/11 01:02:41;;;;;;;70.03;22.33;;;;;;;1.13;100.00;94623.28;5075500;28;20198;-77
2021/10/11 01:05:09;;;;;;;83.17;25.57;;;;;;;1.22;100.00;94623.34;5075403;28;20207;-77
2021/10/11 01:07:36;;;;;;;121.30;38.67;;;;;;;1.33;100.00;94621.69;5074941;28;20442;-77
2021/10/11 01:10:03;;;;;;;88.30;29.30;;;;;;;1.31;100.00;94619.22;5075196;28;20207;-76
2021/10/11 01:12:30;;;;;;;74.03;24.17;;;;;;;1.05;100.00;94614.41;5075175;28;20202;-77
2021/10/11 01:14:57;;;;;;;60.13;20.80;;;;;;;0.90;100.00;94607.91;5074921;28;20248;-76
2021/10/11 01:17:25;;;;;;;57.60;20.20;;;;;;;0.83;100.00;94609.31;5075297;28;20199;-77
2021/10/11 01:19:57;;;;;;;77.50;24.43;;;;;;;1.04;100.00;94612.78;5074870;28;20543;-77
2021/10/11 01:22:34;;;;;;;90.00;26.93;;;;;;;1.11;100.00;94608.75;5075152;28;20244;-77
2021/10/11 01:25:00;;;;;;;88.60;24.13;;;;;;;1.07;100.00;94599.69;5074859;28;20202;-77
2021/10/11 01:27:28;;;;;;;65.30;21.23;;;;;;;0.95;100.00;94600.66;5074879;28;20244;-76
2021/10/11 01:29:55;;;;;;;56.03;20.30;;;;;;;0.73;100.00;94604.91;5074803;28;20629;-77
2021/10/11 01:32:21;;;;;;;47.60;19.27;;;;;;;0.59;100.00;94612.88;5074809;28;20199;-77
2021/10/11 01:34:48;;;;;;;54.40;20.00;;;;;;;0.64;100.00;94610.75;5074544;28;20195;-76
2021/10/11 01:37:15;;;;;;;68.07;21.10;;;;;;;0.67;100.00;94605.38;5073860;28;20256;-76
2021/10/11 01:39:42;;;;;;;67.23;21.97;;;;;;;0.84;100.00;94598.91;5074170;28;20203;-77
2021/10/11 01:42:08;;;;;;;79.13;24.07;;;;;;;0.97;100.00;94585.13;5074750;28;20612;-77
2021/10/11 01:44:36;;;;;;;90.47;23.83;;;;;;;1.00;100.00;94579.72;5074734;28;20199;-77
2021/10/11 01:47:03;;;;;;;74.83;23.27;;;;;;;0.98;100.00;94571.31;5074839;28;20272;-77
2021/10/11 01:49:29;;;;;;;78.23;23.67;;;;;;;0.87;100.00;94574.75;5074677;28;20199;-77
2021/10/11 01:51:56;;;;;;;72.60;23.43;;;;;;;0.81;100.00;94576.03;5074423;28;20194;-76
2021/10/11 01:54:24;;;;;;;82.67;24.83;;;;;;;0.86;100.00;94571.34;5073937;28;20708;-76
2021/10/11 01:56:50;;;;;;;96.70;26.63;;;;;;;1.00;100.00;94574.56;5074417;28;20230;-77
2021/10/11 01:59:16;;;;;;;69.93;23.77;;;;;;;0.85;100.00;94574.88;5074398;28;20202;-77
2021/10/11 02:01:43;;;;;;;80.10;25.47;;;;;;;0.84;100.00;94565.50;5074482;28;20256;-77
2021/10/11 02:04:09;;;;;;;80.53;25.43;;;;;;;0.86;100.00;94562.81;5074078;28;20608;-77
2021/10/11 02:06:36;;;;;;;86.33;23.87;;;;;;;0.75;100.00;94573.97;5074164;28;20198;-77
2021/10/11 02:09:03;;;;;;;70.70;22.57;;;;;;;0.68;100.00;94570.22;5074060;28;20209;-77
2021/10/11 02:11:31;;;;;;;94.77;26.33;;;;;;;0.91;100.00;94560.69;5074182;28;20253;-77
2021/10/11 02:13:57;;;;;;;78.80;24.77;;;;;;;0.85;100.00;94561.19;5074049;28;20557;-77
2021/10/11 02:16:24;;;;;;;77.43;24.20;;;;;;;0.85;100.00;94571.47;5073866;28;20280;-77
2021/10/11 02:18:50;;;;;;;83.13;25.33;;;;;;;0.74;100.00;94570.56;5074034;28;20202;-77
2021/10/11 02:21:17;;;;;;;73.10;24.70;;;;;;;0.78;100.00;94567.75;5073924;28;20608;-77
2021/10/11 02:23:43;;;;;;;89.77;25.63;;;;;;;0.79;100.00;94567.63;5073824;28;20657;-77
2021/10/11 02:26:10;;;;;;;86.93;25.87;;;;;;;0.74;100.00;94559.47;5074012;28;20207;-78
2021/10/11 02:28:37;;;;;;;82.30;24.60;;;;;;;0.74;100.00;94550.00;5073782;28;20605;-77
2021/10/11 02:31:04;;;;;;;76.67;24.90;;;;;;;0.67;100.00;94559.13;5073851;28;20206;-77
2021/10/11 02:33:30;;;;;;;88.83;26.03;;;;;;;0.69;100.00;94538.47;5073696;28;20206;-77
2021/10/11 02:35:57;;;;;;;97.30;25.93;;;;;;;0.61;100.00;94554.47;5073514;28;20268;-77
2021/10/11 02:38:24;;;;;;;81.50;24.50;;;;;;;0.57;100.00;94549.69;5073474;28;20243;-76
2021/10/11 02:40:50;;;;;;;88.70;25.33;;;;;;;0.52;100.00;94544.94;5073850;28;20628;-77
2021/10/11 02:43:16;;;;;;;97.10;27.60;;;;;;;0.60;100.00;94531.47;5073262;28;20203;-77
2021/10/11 02:45:44;;;;;;;94.37;27.03;;;;;;;0.66;100.00;94531.00;5073809;28;20203;-77
2021/10/11 02:48:10;;;;;;;91.57;27.80;;;;;;;0.69;100.00;94525.63;5073677;28;20202;-77
2021/10/11 02:50:37;;;;;;;95.50;27.27;;;;;;;0.68;100.00;94529.94;5073402;28;20198;-77
2021/10/11 02:53:03;;;;;;;90.60;25.87;;;;;;;0.66;100.00;94531.78;5073441;28;20203;-77
2021/10/11 02:55:30;;;;;;;98.93;28.13;;;;;;;0.70;100.00;94522.91;5073216;28;20598;-77
2021/10/11 02:57:56;;;;;;;107.17;28.97;;;;;;;0.73;100.00;94522.69;5073617;28;20206;-77
2021/10/11 03:00:22;;;;;;;100.87;27.63;;;;;;;0.73;100.00;94524.41;5073425;28;20226;-77
2021/10/11 03:02:50;;;;;;;101.70;28.60;;;;;;;0.66;100.00;94531.78;5073390;28;20202;-77
2021/10/11 03:05:17;;;;;;;108.57;29.27;;;;;;;0.72;100.00;94526.19;5073172;28;20199;-77
2021/10/11 03:07:43;;;;;;;92.70;28.00;;;;;;;0.69;100.00;94526.41;5073415;28;20199;-76
2021/10/11 03:10:10;;;;;;;107.93;29.03;;;;;;;0.66;100.00;94534.38;5073001;28;20205;-77
2021/10/11 03:12:36;;;;;;;114.37;31.47;;;;;;;0.87;100.00;94539.56;5073222;28;20194;-76
2021/10/11 03:15:04;;;;;;;95.20;28.43;;;;;;;0.78;100.00;94542.84;5073055;28;20202;-76
2021/10/11 03:17:31;;;;;;;105.03;29.47;;;;;;;0.79;100.00;94543.69;5073150;28;20604;-77
2021/10/11 03:19:59;;;;;;;112.00;29.33;;;;;;;0.76;100.00;94541.34;5073095;28;20256;-77
2021/10/11 03:22:26;;;;;;;107.40;27.87;;;;;;;0.72;100.00;94549.31;5073370;28;20206;-77
2021/10/11 03:24:53;;;;;;;93.63;27.70;;;;;;;0.68;100.00;94550.50;5073291;28;20237;-76
2021/10/11 03:27:20;;;;;;;73.57;24.37;;;;;;;0.49;100.00;94551.09;5073163;28;20206;-77
2021/10/11 03:29:46;;;;;;;88.73;27.03;;;;;;;0.52;100.00;94545.75;5073011;28;20207;-77
2021/10/11 03:32:13;;;;;;;79.97;25.73;;;;;;;0.51;100.00;94556.94;5072928;28;20198;-77
2021/10/11 03:34:39;;;;;;;80.90;25.40;;;;;;;0.49;100.00;94555.44;5073169;28;20346;-78
2021/10/11 03:37:07;;;;;;;94.37;24.97;;;;;;;0.52;100.00;94550.88;5073190;28;20230;-77
2021/10/11 03:39:34;;;;;;;95.37;25.60;;;;;;;0.52;100.00;94548.31;5073147;28;20228;-77
2021/10/11 03:42:00;;;;;;;91.77;26.13;;;;;;;0.55;100.00;94540.38;5073035;28;20211;-77
2021/10/11 03:44:26;;;;;;;90.07;25.97;;;;;;;0.52;100.00;94543.16;5072074;28;20207;-77
2021/10/11 03:46:53;;;;;;;86.30;24.37;;;;;;;0.53;100.00;94547.38;5072902;28;20248;-77
2021/10/11 03:49:19;;;;;;;92.37;25.97;;;;;;;0.56;100.00;94543.75;5072881;28;20583;-77
2021/10/11 03:51:46;;;;;;;80.97;24.77;;;;;;;0.47;100.00;94544.47;5073241;28;20210;-77
2021/10/11 03:54:13;;;;;;;73.47;24.13;;;;;;;0.43;100.00;94543.06;5073576;28;20202;-77
2021/10/11 03:56:42;;;;;;;79.10;25.17;;;;;;;0.43;100.00;94551.56;5076690;28;20696;-77
2021/10/11 03:59:09;;;;;;;76.27;23.43;;;;;;;0.40;100.00;94538.16;5076619;28;20198;-76
2021/10/11 04:01:35;;;;;;;79.30;22.43;;;;;;;0.42;100.00;94549.13;5076331;28;20257;-76
2021/10/11 04:04:02;;;;;;;74.50;21.97;;;;;;;0.40;100.00;94545.88;5076617;28;20249;-76
2021/10/11 04:06:29;;;;;;;85.50;22.40;;;;;;;0.39;100.00;94549.38;5076579;28;20207;-76
2021/10/11 04:08:55;;;;;;;69.17;21.20;;;;;;;0.33;100.00;94543.81;5076583;28;20262;-77
2021/10/11 04:11:24;;;;;;;72.73;22.70;;;;;;;0.40;100.00;94533.88;5076383;28;20599;-76
2021/10/11 04:13:50;;;;;;;67.83;21.13;;;;;;;0.40;100.00;94538.16;5076141;28;20203;-76
2021/10/11 04:16:16;;;;;;;77.03;21.53;;;;;;;0.45;100.00;94533.47;5076146;28;20283;-77
2021/10/11 04:18:43;;;;;;;78.87;20.77;;;;;;;0.42;100.00;94532.00;5076302;28;20611;-76
2021/10/11 04:21:10;;;;;;;67.73;21.27;;;;;;;0.50;100.00;94524.50;5076412;28;20252;-77
2021/10/11 04:23:37;;;;;;;74.50;22.77;;;;;;;0.43;100.00;94537.94;5076115;28;20550;-76
2021/10/11 04:26:04;;;;;;;82.50;23.03;;;;;;;0.39;100.00;94526.28;5075839;28;20289;-75
2021/10/11 04:28:32;;;;;;;88.47;24.73;;;;;;;0.53;100.00;94536.28;5076082;28;20202;-76
2021/10/11 04:30:58;;;;;;;90.10;26.07;;;;;;;0.61;100.00;94528.78;5075971;28;20599;-76
2021/10/11 04:33:25;;;;;;;85.07;24.33;;;;;;;0.50;100.00;94521.09;5075986;28;20260;-76
2021/10/11 04:35:51;;;;;;;78.03;24.50;;;;;;;0.45;100.00;94516.34;5076057;28;20285;-76
2021/10/11 04:38:18;;;;;;;77.20;21.93;;;;;;;0.26;100.00;94511.81;5075710;28;20726;-76
2021/10/11 04:40:45;;;;;;;65.37;21.17;;;;;;;0.26;100.00;94516.94;5075845;28;20288;-76
2021/10/11 04:43:11;;;;;;;77.57;21.93;;;;;;;0.34;100.00;94512.03;5075725;28;20198;-76
2021/10/11 04:45:39;;;;;;;93.67;25.83;;;;;;;0.44;100.00;94521.59;5075823;28;20687;-76
2021/10/11 04:48:08;;;;;;;100.03;25.60;;;;;;;0.43;100.00;94514.81;5075860;28;20279;-76
2021/10/11 04:50:34;;;;;;;90.10;24.57;;;;;;;0.33;100.00;94515.56;5075662;28;20203;-76
2021/10/11 04:53:02;;;;;;;90.03;25.37;;;;;;;0.31;100.00;94514.03;5075683;28;20256;-76
2021/10/11 04:55:29;;;;;;;90.33;24.73;;;;;;;0.28;100.00;94511.69;5075537;28;20237;-76
2021/10/11 04:57:57;;;;;;;94.77;27.07;;;;;;;0.42;100.00;94519.16;5075445;28;20280;-77
2021/10/11 05:00:24;;;;;;;104.27;27.00;;;;;;;0.42;100.00;94513.16;5075728;28;20203;-77
2021/10/11 05:02:52;;;;;;;95.30;27.90;;;;;;;0.34;100.00;94517.16;5075536;28;20206;-77
2021/10/11 05:05:19;;;;;;;84.40;24.87;;;;;;;0.33;100.00;94510.41;5075049;28;20203;-76
2021/10/11 05:07:45;;;;;;;91.83;24.10;;;;;;;0.40;100.00;94509.91;5075270;28;20202;-76
2021/10/11 05:10:12;;;;;;;92.17;24.47;;;;;;;0.48;100.00;94512.69;5075161;28;20206;-77
2021/10/11 05:12:38;;;;;;;92.10;26.87;;;;;;;0.49;100.00;94509.19;5075402;28;20206;-77
2021/10/11 05:15:05;;;;;;;88.07;26.03;;;;;;;0.50;100.00;94505.69;5075120;28;20654;-76
2021/10/11 05:17:32;;;;;;;88.10;25.03;;;;;;;0.50;100.00;94510.81;5075362;28;20226;-76
2021/10/11 05:20:01;;;;;;;87.23;24.60;;;;;;;0.44;100.00;94506.19;5075197;28;20550;-76
2021/10/11 05:22:28;;;;;;;75.27;23.30;;;;;;;0.38;100.00;94507.47;5074971;28;20195;-77
2021/10/11 05:24:54;;;;;;;75.30;22.53;;;;;;;0.36;100.00;94510.16;5075063;28;20203;-77
2021/10/11 05:27:21;;;;;;;71.77;22.37;;;;;;;0.38;100.00;94511.78;5075123;28;20194;-76
2021/10/11 05:29:47;;;;;;;77.77;24.47;;;;;;;0.33;100.00;94507.00;5074675;28;20229;-76
2021/10/11 05:32:13;;;;;;;64.87;20.33;;;;;;;0.32;100.00;94513.09;5074874;28;20210;-76
2021/10/11 05:34:40;;;;;;;106.38;36.58;;;;;;;0.44;100.00;94524.97;5073514;28;20438;-76
2021/10/11 05:37:08;;;;;;;116.17;31.57;;;;;;;0.84;100.00;94528.72;5074750;28;20272;-76
2021/10/11 05:39:34;;;;;;;95.27;28.13;;;;;;;0.87;100.00;94531.06;5074400;28;20660;-77
2021/10/11 05:42:01;;;;;;;99.03;28.53;;;;;;;0.85;100.00;94535.47;5075209;28;20561;-76
2021/10/11 05:44:27;;;;;;;85.10;26.77;;;;;;;0.87;100.00;94531.06;5075241;28;20599;-76
2021/10/11 05:46:54;;;;;;;64.73;22.70;;;;;;;0.66;100.00;94534.38;5074385;28;20203;-78
2021/10/11 05:49:20;;;;;;;77.73;22.77;;;;;;;0.57;100.00;94535.09;5074530;28;20198;-77
2021/10/11 05:51:46;;;;;;;59.83;21.03;;;;;;;0.50;100.00;94539.91;5073704;28;20203;-76
2021/10/11 05:54:14;;;;;;;69.97;20.97;;;;;;;0.53;100.00;94531.97;5074122;28;20206;-77
2021/10/11 05:56:40;;;;;;;55.23;20.13;;;;;;;0.50;100.00;94549.34;5074437;28;20222;-76
2021/10/11 05:59:07;;;;;;;58.10;19.97;;;;;;;0.38;100.00;94537.47;5074420;28;20198;-77
2021/10/11 06:01:33;;;;;;;61.40;18.30;;;;;;;0.28;100.00;94527.91;5074266;28;20194;-77
2021/10/11 06:04:00;;;;;;;63.40;18.10;;;;;;;0.45;100.00;94533.47;5074144;28;20252;-77
2021/10/11 06:06:26;;;;;;;62.60;19.93;;;;;;;0.44;100.00;94545.50;5074051;28;20199;-76
2021/10/11 06:08:54;;;;;;;56.17;17.70;;;;;;;0.38;100.00;94552.88;5074173;28;20198;-76
2021/10/11 06:11:22;;;;;;;57.10;17.80;;;;;;;0.50;100.00;94567.31;5074268;28;20547;-76
2021/10/11 06:13:48;;;;;;;45.07;16.00;;;;;;;0.46;100.00;94576.22;5073999;28;20199;-76
2021/10/11 06:16:16;;;;;;;55.10;17.17;;;;;;;0.43;100.00;94576.47;5073853;28;20244;-77
2021/10/11 06:18:42;;;;;;;60.97;18.37;;;;;;;0.46;100.00;94582.16;5073394;28;20672;-77
2021/10/11 06:21:09;;;;;;;54.90;17.00;;;;;;;0.50;100.00;94568.16;5073890;28;20205;-76
2021/10/11 06:23:35;;;;;;;52.07;16.33;;;;;;;0.59;100.00;94574.34;5073850;28;20342;-77
2021/10/11 06:26:02;;;;;;;49.70;16.63;;;;;;;0.79;100.00;94582.25;5073671;28;20206;-76
2021/10/11 06:28:30;;;;;;;59.57;17.93;;;;;;;0.98;100.00;94579.81;5073612;28;20205;-76
2021/10/11 06:30:56;;;;;;;62.87;18.87;;;;;;;1.01;100.00;94574.44;5073506;28;20241;-77
2021/10/11 06:33:24;;;;;;;63.40;18.30;;;;;;;0.96;100.00;94579.13;5073419;28;20202;-77
2021/10/11 06:35:51;;;;;;;56.23;17.67;;;;;;;0.97;100.00;94585.13;5073771;28;20668;-76
2021/10/11 06:38:17;;;;;;;50.47;16.90;;;;;;;1.00;100.00;94590.81;5073674;28;20238;-77
2021/10/11 06:40:46;;;;;;;56.10;17.37;;;;;;;1.11;100.00;94589.97;5074026;28;20324;-77
2021/10/11 06:43:12;;;;;;;49.80;16.87;;;;;;;1.20;100.00;94596.13;5073852;28;20194;-76
2021/10/11 06:45:42;;;;;;;54.97;17.23;;;;;;;1.20;100.00;94586.66;5073588;28;20199;-77
2021/10/11 06:48:09;;;;;;;50.70;16.33;;;;;;;1.31;100.00;94582.41;5073556;28;20199;-76
2021/10/11 06:50:35;;;;;;;50.57;15.67;;;;;;;1.25;100.00;94583.69;5073762;28;20232;-77
2021/10/11 06:53:02;;;;;;;44.37;14.27;;;;;;;1.26;100.00;94582.78;5073481;28;20206;-77
2021/10/11 06:55:28;;;;;;;45.17;14.60;;;;;;;1.31;100.00;94590.94;5073364;28;20226;-76
2021/10/11 06:57:54;;;;;;;45.17;14.80;;;;;;;1.44;100.00;94591.56;5073466;28;20598;-77
2021/10/11 07:00:21;;;;;;;47.77;15.67;;;;;;;1.57;100.00;94593.97;5073216;28;20249;-76
2021/10/11 07:02:49;;;;;;;55.23;15.70;;;;;;;1.62;100.00;94596.97;5073040;28;20203;-77
2021/10/11 07:05:16;;;;;;;43.53;15.07;;;;;;;1.63;100.00;94601.19;5073512;28;20256;-77
2021/10/11 07:07:44;;;;;;;42.73;15.53;;;;;;;1.73;100.00;94593.50;5073320;28;20209;-77
2021/10/11 07:10:11;;;;;;;58.37;16.80;;;;;;;1.90;100.00;94578.44;5073032;28;20662;-77
2021/10/11 07:12:37;;;;;;;53.37;16.13;;;;;;;2.02;100.00;94572.28;5073204;28;20592;-76
2021/10/11 07:15:05;;;;;;;61.80;17.80;;;;;;;2.10;100.00;94569.88;5073025;28;20206;-77
2021/10/11 07:17:31;;;;;;;60.77;17.07;;;;;;;2.19;100.00;94578.59;5073200;28;20234;-77
2021/10/11 07:19:59;;;;;;;45.40;15.47;;;;;;;2.31;100.00;94566.44;5073031;28;20217;-77
2021/10/11 07:22:25;;;;;;;57.07;17.20;;;;;;;2.45;100.00;94565.25;5073071;28;20199;-77
2021/10/11 07:24:51;;;;;;;61.07;19.03;;;;;;;2.64;100.00;94572.22;5072788;28;20198;-76
2021/10/11 07:27:18;;;;;;;62.60;17.77;;;;;;;2.82;100.00;94570.63;5072992;28;20206;-77
2021/10/11 07:29:44;;;;;;;64.40;19.93;;;;;;;3.04;100.00;94579.09;5076285;28;20225;-77
2021/10/11 07:32:11;;;;;;;70.50;20.10;;;;;;;3.24;100.00;94585.88;5076992;28;20201;-77
2021/10/11 07:34:37;;;;;;;63.37;20.53;;;;;;;3.38;100.00;94592.41;5077046;28;20256;-77
2021/10/11 07:37:06;;;;;;;68.17;20.17;;;;;;;3.60;100.00;94587.94;5076722;28;20230;-77
2021/10/11 07:39:33;;;;;;;57.20;20.20;;;;;;;3.86;100.00;94594.13;5076854;28;20241;-77
2021/10/11 07:42:00;;;;;;;57.77;18.97;;;;;;;4.07;100.00;94593.13;5076838;28;20249;-77
2021/10/11 07:44:26;;;;;;;59.10;21.07;;;;;;;4.32;100.00;94586.53;5076501;28;20199;-77
2021/10/11 07:46:54;;;;;;;56.17;17.27;;;;;;;4.47;100.00;94588.66;5076725;28;20199;-77
2021/10/11 07:49:21;;;;;;;54.73;18.23;;;;;;;4.78;100.00;94587.41;5076512;28;20249;-77
2021/10/11 07:51:48;;;;;;;51.47;17.37;;;;;;;4.95;100.00;94590.16;5076640;28;20202;-77
2021/10/11 07:54:18;;;;;;;56.27;19.23;;;;;;;5.24;100.00;94594.34;5076160;28;20206;-77
2021/10/11 07:56:44;;;;;;;46.83;16.83;;;;;;;5.47;100.00;94592.94;5076454;28;20200;-78
2021/10/11 07:59:11;;;;;;;40.53;15.03;;;;;;;5.65;100.00;94592.91;5075452;28;20230;-78
2021/10/11 08:01:38;;;;;;;40.33;14.63;;;;;;;5.87;100.00;94593.41;5076290;28;20191;-77
2021/10/11 08:04:04;;;;;;;46.60;16.70;;;;;;;6.10;100.00;94593.75;5076280;28;20203;-77
2021/10/11 08:06:31;;;;;;;41.83;15.40;;;;;;;6.34;100.00;94600.06;5076158;28;20252;-77
2021/10/11 08:08:58;;;;;;;31.57;14.57;;;;;;;6.56;100.00;94601.28;5076152;28;20635;-78
2021/10/11 08:11:25;;;;;;;28.20;14.00;;;;;;;6.74;100.00;94596.03;5076022;28;20195;-77
2021/10/11 08:13:52;;;;;;;34.87;14.83;;;;;;;7.00;100.00;94601.94;5076117;28;20252;-78
2021/10/11 08:16:18;;;;;;;39.93;15.63;;;;;;;7.06;100.00;94600.53;5076106;28;20565;-78
2021/10/11 08:18:45;;;;;;;24.13;11.57;;;;;;;6.94;100.00;94602.56;5075917;28;20231;-78
2021/10/11 08:21:11;;;;;;;23.30;10.33;;;;;;;7.12;100.00;94604.25;5076087;28;20609;-78
2021/10/11 08:23:41;;;;;;;19.27;9.70;;;;;;;7.13;100.00;94608.50;5075961;28;20256;-77
2021/10/11 08:26:08;;;;;;;19.13;9.40;;;;;;;7.23;100.00;94609.97;5075623;28;20570;-78
2021/10/11 08:28:36;;;;;;;17.07;7.70;;;;;;;7.51;100.00;94604.50;5075929;28;20268;-77
2021/10/11 08:31:03;;;;;;;14.73;7.53;;;;;;;7.63;100.00;94605.00;5075877;28;20248;-77
2021/10/11 08:33:29;;;;;;;13.53;7.50;;;;;;;7.90;100.00;94603.06;5075903;28;20205;-77
2021/10/11 08:35:56;;;;;;;12.73;7.03;;;;;;;8.03;100.00;94608.56;5075647;28;20248;-77
2021/10/11 08:38:22;;;;;;;16.10;6.80;;;;;;;8.07;100.00;94599.44;5075746;28;20585;-78
2021/10/11 08:40:50;;;;;;;11.67;5.73;;;;;;;8.10;100.00;94604.31;5074652;28;20202;-78
2021/10/11 08:43:16;;;;;;;13.10;5.70;;;;;;;8.09;100.00;94597.53;5075450;28;20665;-78
2021/10/11 08:45:47;;;;;;;15.00;7.23;;;;;;;8.07;100.00;94615.06;5075531;28;20662;-78
2021/10/11 08:48:13;;;;;;;14.20;6.90;;;;;;;7.88;100.00;94621.41;5075483;28;20268;-78
2021/10/11 08:50:40;;;;;;;11.60;6.80;;;;;;;7.78;100.00;94605.97;5075370;28;20231;-78
2021/10/11 08:53:07;;;;;;;12.03;6.97;;;;;;;7.89;100.00;94611.81;5075185;28;20259;-78
2021/10/11 08:55:34;;;;;;;15.77;7.50;;;;;;;8.01;100.00;94615.72;5075022;28;20720;-78
2021/10/11 08:58:02;;;;;;;15.37;7.30;;;;;;;8.06;100.00;94618.66;5075303;28;20303;-78
2021/10/11 09:00:33;;;;;;;13.20;6.40;;;;;;;8.09;100.00;94618.31;5075223;28;20285;-79
2021/10/11 09:03:01;;;;;;;14.57;6.83;;;;;;;8.08;100.00;94610.69;5075204;28;20202;-78
2021/10/11 09:05:32;;;;;;;18.97;8.53;;;;;;;8.13;100.00;94619.59;5075138;28;20203;-78
2021/10/11 09:08:01;;;;;;;16.37;8.83;;;;;;;8.22;100.00;94622.19;5075044;28;20194;-79
2021/10/11 09:10:28;;;;;;;16.80;8.57;;;;;;;8.27;100.00;94627.72;5075199;28;20203;-79
2021/10/11 09:12:55;;;;;;;18.10;9.17;;;;;;;8.41;100.00;94621.03;5074981;28;20244;-79
2021/10/11 09:15:25;;;;;;;20.03;7.60;;;;;;;8.57;100.00;94623.63;5074980;28;20202;-79
2021/10/11 09:17:55;;;;;;;16.70;8.27;;;;;;;8.77;100.00;94616.22;5074722;28;20558;-79
2021/10/11 09:20:25;;;;;;;16.63;7.27;;;;;;;8.89;100.00;94614.06;5074686;28;20209;-79
2021/10/11 09:22:53;;;;;;;14.67;6.67;;;;;;;9.12;100.00;94615.94;5074898;28;20248;-79
2021/10/11 09:25:21;;;;;;;17.37;6.93;;;;;;;9.20;100.00;94606.28;5074591;28;20702;-79
2021/10/11 09:27:50;;;;;;;12.50;6.50;;;;;;;9.49;100.00;94604.81;5074794;28;20259;-79
2021/10/11 09:30:18;;;;;;;13.83;7.20;;;;;;;9.76;100.00;94605.28;5074605;28;20207;-79
2021/10/11 09:32:45;;;;;;;17.33;7.10;;;;;;;9.93;100.00;94605.97;5074459;28;20203;-79
2021/10/11 09:35:14;;;;;;;13.17;6.60;;;;;;;9.80;98.51;94607.34;5074750;28;20608;-78
2021/10/11 09:37:46;;;;;;;12.97;5.57;;;;;;;9.90;90.37;94607.13;5074231;28;20272;-79
2021/10/11 09:40:13;;;;;;;12.23;6.50;;;;;;;9.65;90.02;94606.50;5074604;28;20202;-78
2021/10/11 09:42:39;;;;;;;17.67;7.03;;;;;;;9.59;88.54;94601.97;5074483;28;20672;-78
2021/10/11 09:45:06;;;;;;;14.83;6.43;;;;;;;9.66;91.51;94608.13;5074406;28;20391;-78
2021/10/11 09:47:35;;;;;;;14.67;7.00;;;;;;;9.82;100.00;94604.56;5074205;28;20253;-78
2021/10/11 09:50:04;;;;;;;12.30;6.83;;;;;;;9.82;98.92;94604.56;5074341;28;20201;-77
2021/10/11 09:52:31;;;;;;;15.30;7.17;;;;;;;9.79;100.00;94610.13;5074084;28;20206;-78
2021/10/11 09:54:59;;;;;;;20.20;7.80;;;;;;;9.81;100.00;94606.38;5074088;28;20257;-78
2021/10/11 09:57:26;;;;;;;17.07;7.73;;;;;;;9.76;99.35;94610.50;5074012;28;20649;-78
2021/10/11 09:59:53;;;;;;;15.13;7.60;;;;;;;9.82;98.36;94609.78;5073891;28;20234;-77
2021/10/11 10:02:25;;;;;;;19.77;8.17;;;;;;;9.82;98.90;94605.41;5073106;28;20285;-77
2021/10/11 10:04:56;;;;;;;16.90;7.80;;;;;;;9.76;100.00;94602.69;5074083;28;20203;-77
2021/10/11 10:07:24;;;;;;;18.80;8.13;;;;;;;9.79;100.00;94600.53;5074026;28;20203;-79
2021/10/11 10:09:52;;;;;;;17.60;7.90;;;;;;;9.43;97.85;94598.50;5073809;28;20256;-78
2021/10/11 10:12:20;;;;;;;14.07;7.73;;;;;;;9.41;97.64;94597.06;5073707;28;20862;-79
2021/10/11 10:14:57;;;;;;;16.20;7.27;;;;;;;9.30;96.03;94589.63;5073907;28;20237;-79
2021/10/11 10:17:32;;;;;;;19.13;8.23;;;;;;;9.39;100.00;94588.56;5073908;28;20293;-79
2021/10/11 10:20:09;;;;;;;19.60;8.53;;;;;;;9.59;100.00;94581.13;5073664;28;20222;-79
2021/10/11 10:22:36;;;;;;;14.80;7.83;;;;;;;9.60;99.26;94580.13;5073558;28;20645;-79
2021/10/11 10:25:07;;;;;;;15.90;8.10;;;;;;;9.71;100.00;94586.72;5073534;28;20707;-78
2021/10/11 10:27:38;;;;;;;18.77;8.93;;;;;;;9.70;99.50;94579.91;5073781;28;20592;-78
2021/10/11 10:30:17;;;;;;;20.27;8.27;;;;;;;9.90;100.00;94583.66;5073636;28;20209;-78
2021/10/11 10:32:54;;;;;;;14.23;8.27;;;;;;;10.07;99.11;94584.31;5073448;28;20206;-77
2021/10/11 10:35:21;;;;;;;18.83;8.87;;;;;;;10.29;100.00;94574.81;5073364;28;20210;-78
2021/10/11 10:37:47;;;;;;;18.63;7.83;;;;;;;10.43;94.29;94572.44;5073471;28;20625;-78
2021/10/11 10:40:17;;;;;;;18.67;8.07;;;;;;;10.73;91.75;94578.47;5073495;28;20199;-77
2021/10/11 10:42:45;;;;;;;16.00;8.10;;;;;;;10.65;95.32;94584.56;5073415;28;20198;-77
2021/10/11 10:45:18;;;;;;;16.03;7.90;;;;;;;10.71;90.42;94570.81;5073329;28;20206;-78
2021/10/11 10:47:47;;;;;;;18.03;8.23;;;;;;;10.62;93.79;94574.50;5073141;28;20230;-79
2021/10/11 10:50:16;;;;;;;15.23;7.67;;;;;;;10.76;89.44;94574.66;5073309;28;20199;-79
2021/10/11 10:52:47;;;;;;;15.47;7.43;;;;;;;10.78;92.47;94577.94;5073183;28;20264;-79
2021/10/11 10:55:13;;;;;;;14.07;6.90;;;;;;;10.57;87.03;94566.38;5073082;28;20570;-78
2021/10/11 10:57:41;;;;;;;15.70;6.82;;;;;;;10.72;84.79;94567.22;5073160;28;20199;-79
2021/10/11 11:00:16;;;;;;;14.93;7.30;;;;;;;10.74;84.85;94572.22;5072994;28;20238;-79
2021/10/11 11:02:47;;;;;;;15.87;7.03;;;;;;;10.69;85.47;94564.13;5072840;28;20293;-79
2021/10/11 11:05:15;;;;;;;14.73;7.10;;;;;;;10.86;88.42;94573.41;5073260;28;20209;-79
2021/10/11 11:07:43;;;;;;;16.03;7.53;;;;;;;10.95;85.06;94568.88;5073014;28;20645;-79
2021/10/11 11:10:14;;;;;;;12.65;6.05;;;;;;;10.79;85.62;94559.47;5073055;28;20234;-78
2021/10/11 11:12:42;;;;;;;13.17;6.57;;;;;;;10.82;81.94;94568.72;5072820;28;20202;-79
2021/10/11 11:15:23;;;;;;;12.77;6.80;;;;;;;10.70;80.65;94571.78;5073006;28;20256;-79
2021/10/11 11:17:50;;;;;;;13.27;5.47;;;;;;;10.72;68.70;94569.81;5073112;28;20293;-78
2021/10/11 11:20:20;;;;;;;15.77;4.90;;;;;;;10.85;67.22;94573.59;5073088;28;20235;-78